Wetterdaten: Samstag, 16.06.2018
Datum Zeit Temp. Auen Feucht Auen Luftdruck Regen Richtung Richtung Windben
16.06.2018 00:00 11,2 C 86 % 1016,7 hPa 0,0 mm W-NW 286 0,0 km/h (0 Bft)
16.06.2018 00:05 10,9 C 87 % 1016,7 hPa 0,0 mm W-NW 286 0,0 km/h (0 Bft)
16.06.2018 00:10 10,9 C 88 % 1016,7 hPa 0,0 mm W-NW 286 0,0 km/h (0 Bft)
16.06.2018 00:15 11,0 C 88 % 1016,7 hPa 0,0 mm W-NW 286 4,8 km/h (1 Bft)
16.06.2018 00:20 11,1 C 88 % 1016,7 hPa 0,0 mm W-NW 286 6,4 km/h (2 Bft)
16.06.2018 00:25 11,1 C 88 % 1016,7 hPa 0,0 mm W-NW 286 3,2 km/h (1 Bft)
16.06.2018 00:30 11,1 C 87 % 1016,7 hPa 0,0 mm W-NW 286 3,2 km/h (1 Bft)
16.06.2018 00:35 11,2 C 87 % 1016,7 hPa 0,0 mm W-NW 286 3,2 km/h (1 Bft)
16.06.2018 00:40 11,2 C 87 % 1016,8 hPa 0,0 mm W-NW 286 3,2 km/h (1 Bft)
16.06.2018 00:45 11,3 C 87 % 1016,7 hPa 0,0 mm W-NW 286 4,8 km/h (1 Bft)
16.06.2018 00:50 11,2 C 88 % 1016,8 hPa 0,0 mm W-NW 286 3,2 km/h (1 Bft)
16.06.2018 00:55 11,2 C 88 % 1016,7 hPa 0,0 mm W-NW 286 3,2 km/h (1 Bft)
16.06.2018 01:00 11,3 C 88 % 1016,7 hPa 0,0 mm W-NW 286 3,2 km/h (1 Bft)
16.06.2018 01:05 11,3 C 88 % 1016,7 hPa 0,0 mm W-NW 286 3,2 km/h (1 Bft)
16.06.2018 01:10 11,2 C 88 % 1016,7 hPa 0,0 mm W-NW 286 0,0 km/h (0 Bft)
16.06.2018 01:15 11,1 C 88 % 1016,7 hPa 0,0 mm W-NW 286 3,2 km/h (1 Bft)
16.06.2018 01:20 11,2 C 88 % 1016,7 hPa 0,0 mm W-NW 286 6,4 km/h (2 Bft)
16.06.2018 01:25 11,2 C 88 % 1016,8 hPa 0,0 mm W-NW 286 3,2 km/h (1 Bft)
16.06.2018 01:30 11,1 C 88 % 1016,7 hPa 0,0 mm W-NW 286 0,0 km/h (0 Bft)
16.06.2018 01:35 10,6 C 88 % 1016,8 hPa 0,0 mm W-NW 286 0,0 km/h (0 Bft)
16.06.2018 01:40 10,7 C 89 % 1016,8 hPa 0,0 mm W-NW 286 0,0 km/h (0 Bft)
16.06.2018 01:45 10,8 C 89 % 1016,8 hPa 0,0 mm W-NW 286 0,0 km/h (0 Bft)
16.06.2018 01:50 10,6 C 89 % 1016,7 hPa 0,0 mm W-NW 286 1,6 km/h (1 Bft)
16.06.2018 01:55 10,6 C 89 % 1016,7 hPa 0,0 mm W-NW 286 0,0 km/h (0 Bft)
16.06.2018 02:00 10,5 C 90 % 1016,7 hPa 0,0 mm W-NW 286 0,0 km/h (0 Bft)
16.06.2018 02:05 10,6 C 90 % 1016,8 hPa 0,0 mm W-NW 286 3,2 km/h (1 Bft)
16.06.2018 02:10 10,8 C 90 % 1016,8 hPa 0,0 mm W-NW 286 3,2 km/h (1 Bft)
16.06.2018 02:15 10,9 C 89 % 1016,7 hPa 0,0 mm W-NW 286 4,8 km/h (1 Bft)
16.06.2018 02:20 11,0 C 89 % 1016,7 hPa 0,0 mm W-NW 286 3,2 km/h (1 Bft)
16.06.2018 02:25 10,9 C 88 % 1016,7 hPa 0,0 mm W-NW 286 4,8 km/h (1 Bft)
16.06.2018 02:30 10,8 C 88 % 1016,7 hPa 0,0 mm W-NW 286 3,2 km/h (1 Bft)
16.06.2018 02:35 10,7 C 89 % 1016,6 hPa 0,0 mm W-NW 286 4,8 km/h (1 Bft)
16.06.2018 02:40 10,8 C 89 % 1016,6 hPa 0,0 mm W-NW 286 3,2 km/h (1 Bft)
16.06.2018 02:45 10,9 C 89 % 1016,6 hPa 0,0 mm W-NW 286 4,8 km/h (1 Bft)
16.06.2018 02:50 11,1 C 89 % 1016,5 hPa 0,0 mm W-NW 286 3,2 km/h (1 Bft)
16.06.2018 02:55 11,2 C 89 % 1016,5 hPa 0,0 mm W-NW 286 4,8 km/h (1 Bft)
16.06.2018 03:00 11,3 C 88 % 1016,5 hPa 0,0 mm W-NW 286 3,2 km/h (1 Bft)
16.06.2018 03:05 11,3 C 88 % 1016,5 hPa 0,0 mm W-NW 286 0,0 km/h (0 Bft)
16.06.2018 03:10 11,2 C 89 % 1016,5 hPa 0,0 mm W-NW 286 3,2 km/h (1 Bft)
16.06.2018 03:15 11,3 C 89 % 1016,4 hPa 0,0 mm W-NW 286 4,8 km/h (1 Bft)
16.06.2018 03:20 11,4 C 88 % 1016,4 hPa 0,0 mm W-NW 286 3,2 km/h (1 Bft)
16.06.2018 03:25 11,4 C 88 % 1016,4 hPa 0,0 mm W-NW 286 0,0 km/h (0 Bft)
16.06.2018 03:30 11,6 C 88 % 1016,3 hPa 0,0 mm W-NW 286 0,0 km/h (0 Bft)
16.06.2018 03:35 11,6 C 88 % 1016,2 hPa 0,0 mm W-NW 286 0,0 km/h (0 Bft)
16.06.2018 03:40 11,6 C 88 % 1016,2 hPa 0,0 mm W-NW 286 0,0 km/h (0 Bft)
16.06.2018 03:45 11,7 C 88 % 1016,1 hPa 0,0 mm W-NW 286 3,2 km/h (1 Bft)
16.06.2018 03:50 11,7 C 88 % 1016,1 hPa 0,0 mm W-NW 286 1,6 km/h (1 Bft)
16.06.2018 03:55 11,7 C 88 % 1016,1 hPa 0,0 mm W-NW 286 3,2 km/h (1 Bft)
16.06.2018 04:00 11,6 C 88 % 1016,1 hPa 0,0 mm W-NW 286 0,0 km/h (0 Bft)
16.06.2018 04:05 11,6 C 88 % 1016,1 hPa 0,0 mm W-NW 286 1,6 km/h (1 Bft)
16.06.2018 04:10 11,5 C 88 % 1016,0 hPa 0,0 mm W-NW 286 1,6 km/h (1 Bft)
16.06.2018 04:15 11,5 C 88 % 1016,0 hPa 0,0 mm W-NW 286 0,0 km/h (0 Bft)
16.06.2018 04:20 11,3 C 88 % 1016,0 hPa 0,0 mm W-NW 286 0,0 km/h (0 Bft)
16.06.2018 04:25 11,0 C 89 % 1016,0 hPa 0,0 mm W-NW 286 0,0 km/h (0 Bft)
16.06.2018 04:30 11,0 C 90 % 1016,0 hPa 0,0 mm W-NW 286 0,0 km/h (0 Bft)
16.06.2018 04:35 11,0 C 90 % 1015,9 hPa 0,0 mm W-NW 286 0,0 km/h (0 Bft)
16.06.2018 04:40 10,9 C 90 % 1016,0 hPa 0,0 mm W-NW 286 0,0 km/h (0 Bft)
16.06.2018 04:45 10,8 C 90 % 1015,9 hPa 0,0 mm W-NW 286 0,0 km/h (0 Bft)
16.06.2018 04:50 10,6 C 90 % 1015,9 hPa 0,0 mm W-NW 286 0,0 km/h (0 Bft)
16.06.2018 04:55 10,3 C 90 % 1015,9 hPa 0,0 mm W-NW 286 0,0 km/h (0 Bft)
16.06.2018 05:00 10,4 C 91 % 1015,9 hPa 0,0 mm W-NW 286 0,0 km/h (0 Bft)
16.06.2018 05:05 10,4 C 91 % 1015,9 hPa 0,0 mm W-NW 286 0,0 km/h (0 Bft)
16.06.2018 05:10 10,4 C 91 % 1016,0 hPa 0,0 mm W-NW 286 0,0 km/h (0 Bft)
16.06.2018 05:15 10,2 C 91 % 1016,0 hPa 0,0 mm W-NW 286 0,0 km/h (0 Bft)
16.06.2018 05:20 10,2 C 91 % 1015,9 hPa 0,0 mm W-NW 286 0,0 km/h (0 Bft)
16.06.2018 05:25 10,2 C 91 % 1015,9 hPa 0,0 mm W-NW 286 0,0 km/h (0 Bft)
16.06.2018 05:30 10,3 C 91 % 1015,9 hPa 0,0 mm W-NW 286 0,0 km/h (0 Bft)
16.06.2018 05:35 10,2 C 91 % 1016,1 hPa 0,0 mm W-NW 286 0,0 km/h (0 Bft)
16.06.2018 05:40 10,1 C 91 % 1016,1 hPa 0,0 mm W-NW 286 0,0 km/h (0 Bft)
16.06.2018 05:45 10,1 C 92 % 1016,1 hPa 0,0 mm W-NW 286 0,0 km/h (0 Bft)
16.06.2018 05:50 10,2 C 92 % 1016,0 hPa 0,0 mm W-NW 286 0,0 km/h (0 Bft)
16.06.2018 05:55 10,3 C 92 % 1016,1 hPa 0,0 mm W-NW 286 0,0 km/h (0 Bft)
16.06.2018 06:00 10,5 C 92 % 1016,2 hPa 0,0 mm W-NW 286 0,0 km/h (0 Bft)
16.06.2018 06:05 10,6 C 92 % 1016,2 hPa 0,0 mm W-NW 286 0,0 km/h (0 Bft)
16.06.2018 06:10 11,1 C 91 % 1016,3 hPa 0,0 mm W-NW 286 0,0 km/h (0 Bft)
16.06.2018 06:15 11,2 C 91 % 1016,3 hPa 0,0 mm W-NW 286 0,0 km/h (0 Bft)
16.06.2018 06:20 11,4 C 91 % 1016,3 hPa 0,0 mm W-NW 286 0,0 km/h (0 Bft)
16.06.2018 06:25 11,9 C 90 % 1016,2 hPa 0,0 mm W-NW 286 4,8 km/h (1 Bft)
16.06.2018 06:30 12,3 C 89 % 1016,2 hPa 0,0 mm W-NW 282 6,4 km/h (2 Bft)
16.06.2018 06:35 12,7 C 87 % 1016,1 hPa 0,0 mm W 272 6,4 km/h (2 Bft)
16.06.2018 06:40 12,8 C 86 % 1016,3 hPa 0,0 mm W 277 6,4 km/h (2 Bft)
16.06.2018 06:45 12,6 C 87 % 1016,3 hPa 0,0 mm N 355 3,2 km/h (1 Bft)
16.06.2018 06:50 12,6 C 87 % 1016,3 hPa 0,0 mm N 355 0,0 km/h (0 Bft)
16.06.2018 06:55 12,8 C 86 % 1016,3 hPa 0,0 mm N 355 0,0 km/h (0 Bft)
16.06.2018 07:00 12,8 C 86 % 1016,4 hPa 0,0 mm N 355 0,0 km/h (0 Bft)
16.06.2018 07:05 13,1 C 87 % 1016,3 hPa 0,0 mm N 355 0,0 km/h (0 Bft)
16.06.2018 07:10 14,6 C 84 % 1016,2 hPa 0,0 mm N 355 0,0 km/h (0 Bft)
16.06.2018 07:15 15,2 C 80 % 1016,2 hPa 0,0 mm N 355 3,2 km/h (1 Bft)
16.06.2018 07:20 15,5 C 78 % 1016,1 hPa 0,0 mm N 355 1,6 km/h (1 Bft)
16.06.2018 07:25 15,0 C 81 % 1016,1 hPa 0,0 mm N 355 4,8 km/h (1 Bft)
16.06.2018 07:30 14,8 C 83 % 1016,1 hPa 0,0 mm N 355 3,2 km/h (1 Bft)
16.06.2018 07:35 14,7 C 83 % 1016,2 hPa 0,0 mm N 355 3,2 km/h (1 Bft)
16.06.2018 07:40 14,8 C 83 % 1016,1 hPa 0,0 mm N 355 1,6 km/h (1 Bft)
16.06.2018 07:45 14,8 C 81 % 1016,0 hPa 0,0 mm N 355 1,6 km/h (1 Bft)
16.06.2018 07:50 15,0 C 80 % 1016,0 hPa 0,0 mm N 355 1,6 km/h (1 Bft)
16.06.2018 07:55 15,4 C 80 % 1016,0 hPa 0,0 mm N 355 0,0 km/h (0 Bft)
16.06.2018 08:00 15,8 C 78 % 1016,0 hPa 0,0 mm N 355 1,6 km/h (1 Bft)
16.06.2018 08:05 15,8 C 79 % 1016,1 hPa 0,0 mm N 355 1,6 km/h (1 Bft)
16.06.2018 08:10 16,0 C 78 % 1016,0 hPa 0,0 mm N 355 0,0 km/h (0 Bft)
16.06.2018 08:15 16,1 C 78 % 1016,0 hPa 0,0 mm N 355 1,6 km/h (1 Bft)
16.06.2018 08:20 16,4 C 78 % 1016,0 hPa 0,0 mm N 355 1,6 km/h (1 Bft)
16.06.2018 08:25 16,8 C 78 % 1016,1 hPa 0,0 mm NO 40 4,8 km/h (1 Bft)
16.06.2018 08:30 16,8 C 77 % 1016,1 hPa 0,0 mm NO 40 3,2 km/h (1 Bft)
16.06.2018 08:35 17,1 C 77 % 1016,0 hPa 0,0 mm O-NO 62 3,2 km/h (1 Bft)
16.06.2018 08:40 17,1 C 76 % 1016,0 hPa 0,0 mm O-NO 62 1,6 km/h (1 Bft)
16.06.2018 08:45 17,1 C 77 % 1016,0 hPa 0,0 mm O-NO 62 3,2 km/h (1 Bft)
16.06.2018 08:50 17,2 C 74 % 1016,0 hPa 0,0 mm O-NO 62 3,2 km/h (1 Bft)
16.06.2018 08:55 17,3 C 72 % 1015,9 hPa 0,0 mm O-NO 62 3,2 km/h (1 Bft)
16.06.2018 09:00 18,0 C 74 % 1015,9 hPa 0,0 mm O-NO 62 3,2 km/h (1 Bft)
16.06.2018 09:05 18,2 C 73 % 1015,9 hPa 0,0 mm O-NO 62 3,2 km/h (1 Bft)
16.06.2018 09:10 18,6 C 70 % 1015,9 hPa 0,0 mm O-NO 62 4,8 km/h (1 Bft)
16.06.2018 09:15 18,5 C 71 % 1015,8 hPa 0,0 mm O-NO 62 4,8 km/h (1 Bft)
16.06.2018 09:20 18,9 C 69 % 1015,8 hPa 0,0 mm O-NO 59 4,8 km/h (1 Bft)
16.06.2018 09:25 18,9 C 70 % 1015,8 hPa 0,0 mm O-NO 59 3,2 km/h (1 Bft)
16.06.2018 09:30 19,1 C 69 % 1015,7 hPa 0,0 mm S-SO 155 6,4 km/h (2 Bft)
16.06.2018 09:35 18,8 C 67 % 1015,7 hPa 0,0 mm S-SO 155 4,8 km/h (1 Bft)
16.06.2018 09:40 19,1 C 69 % 1015,7 hPa 0,0 mm S-SO 155 6,4 km/h (2 Bft)
16.06.2018 09:45 19,4 C 64 % 1015,6 hPa 0,0 mm S-SO 155 4,8 km/h (1 Bft)
16.06.2018 09:50 19,7 C 67 % 1015,7 hPa 0,0 mm SO 130 4,8 km/h (1 Bft)
16.06.2018 09:55 19,7 C 64 % 1015,7 hPa 0,0 mm S-SO 165 6,4 km/h (2 Bft)
16.06.2018 10:00 19,9 C 62 % 1015,7 hPa 0,0 mm SO 132 6,4 km/h (2 Bft)
16.06.2018 10:05 20,1 C 66 % 1015,6 hPa 0,0 mm O 97 8,0 km/h (2 Bft)
16.06.2018 10:10 20,3 C 62 % 1015,7 hPa 0,0 mm O 90 9,7 km/h (2 Bft)
16.06.2018 10:15 20,5 C 61 % 1015,7 hPa 0,0 mm O 79 11,3 km/h (2 Bft)
16.06.2018 10:20 20,8 C 62 % 1015,7 hPa 0,0 mm O-SO 104 11,3 km/h (2 Bft)
16.06.2018 10:25 20,5 C 60 % 1015,7 hPa 0,0 mm O-SO 113 11,3 km/h (2 Bft)
16.06.2018 10:30 20,3 C 63 % 1015,6 hPa 0,0 mm O 101 11,3 km/h (2 Bft)
16.06.2018 10:35 20,8 C 65 % 1015,7 hPa 0,0 mm O 101 8,0 km/h (2 Bft)
16.06.2018 10:40 21,0 C 65 % 1015,5 hPa 0,0 mm O-SO 105 8,0 km/h (2 Bft)
16.06.2018 10:45 21,1 C 63 % 1015,6 hPa 0,0 mm O-NO 60 12,9 km/h (3 Bft)
16.06.2018 10:50 21,2 C 65 % 1015,7 hPa 0,0 mm O-SO 115 12,9 km/h (3 Bft)
16.06.2018 10:55 21,1 C 62 % 1015,7 hPa 0,0 mm SO 134 14,5 km/h (3 Bft)
16.06.2018 11:00 20,4 C 61 % 1015,7 hPa 0,0 mm S-SO 147 14,5 km/h (3 Bft)
16.06.2018 11:05 20,2 C 64 % 1015,7 hPa 0,0 mm O-SO 111 14,5 km/h (3 Bft)
16.06.2018 11:10 20,6 C 64 % 1015,7 hPa 0,0 mm SO 139 11,3 km/h (2 Bft)
16.06.2018 11:15 20,8 C 60 % 1015,7 hPa 0,0 mm O 84 9,7 km/h (2 Bft)
16.06.2018 11:20 21,3 C 61 % 1015,7 hPa 0,0 mm O-SO 111 11,3 km/h (2 Bft)
16.06.2018 11:25 21,2 C 60 % 1015,7 hPa 0,0 mm O-SO 108 11,3 km/h (2 Bft)
16.06.2018 11:30 21,4 C 62 % 1015,6 hPa 0,0 mm SO 132 14,5 km/h (3 Bft)
16.06.2018 11:35 21,6 C 63 % 1015,6 hPa 0,0 mm O 90 12,9 km/h (3 Bft)
16.06.2018 11:40 21,4 C 60 % 1015,6 hPa 0,0 mm O 90 12,9 km/h (3 Bft)
16.06.2018 11:45 21,7 C 60 % 1015,5 hPa 0,0 mm NO 34 11,3 km/h (2 Bft)
16.06.2018 11:50 21,7 C 61 % 1015,4 hPa 0,0 mm O 90 11,3 km/h (2 Bft)
16.06.2018 11:55 21,9 C 60 % 1015,5 hPa 0,0 mm O-NO 71 16,1 km/h (3 Bft)
16.06.2018 12:00 22,0 C 58 % 1015,4 hPa 0,0 mm O 99 17,7 km/h (3 Bft)
16.06.2018 12:05 21,8 C 59 % 1015,4 hPa 0,0 mm S-SW 212 11,3 km/h (2 Bft)
16.06.2018 12:10 21,8 C 57 % 1015,4 hPa 0,0 mm S-SO 150 12,9 km/h (3 Bft)
16.06.2018 12:15 22,0 C 61 % 1015,3 hPa 0,0 mm SO 128 14,5 km/h (3 Bft)
16.06.2018 12:20 22,5 C 58 % 1015,4 hPa 0,0 mm O-SO 116 14,5 km/h (3 Bft)
16.06.2018 12:25 22,2 C 54 % 1015,4 hPa 0,0 mm SO 133 17,7 km/h (3 Bft)
16.06.2018 12:30 22,2 C 57 % 1015,3 hPa 0,0 mm S-SO 159 16,1 km/h (3 Bft)
16.06.2018 12:35 22,3 C 56 % 1015,3 hPa 0,0 mm O 98 19,3 km/h (3 Bft)
16.06.2018 12:40 22,7 C 58 % 1015,2 hPa 0,0 mm O 101 16,1 km/h (3 Bft)
16.06.2018 12:45 22,4 C 58 % 1015,2 hPa 0,0 mm O 85 14,5 km/h (3 Bft)
16.06.2018 12:50 22,3 C 54 % 1015,2 hPa 0,0 mm O-NO 77 14,5 km/h (3 Bft)
16.06.2018 12:55 22,2 C 55 % 1015,2 hPa 0,0 mm O-SO 120 14,5 km/h (3 Bft)
16.06.2018 13:00 22,2 C 55 % 1015,2 hPa 0,0 mm O 90 11,3 km/h (2 Bft)
16.06.2018 13:05 22,3 C 55 % 1015,1 hPa 0,0 mm SO 129 16,1 km/h (3 Bft)
16.06.2018 13:10 22,4 C 57 % 1015,0 hPa 0,0 mm SO 137 11,3 km/h (2 Bft)
16.06.2018 13:15 22,6 C 54 % 1015,0 hPa 0,0 mm O 92 16,1 km/h (3 Bft)
16.06.2018 13:20 22,6 C 57 % 1015,0 hPa 0,0 mm O-NO 57 16,1 km/h (3 Bft)
16.06.2018 13:25 22,7 C 58 % 1015,0 hPa 0,0 mm O-NO 66 16,1 km/h (3 Bft)
16.06.2018 13:30 22,1 C 59 % 1014,9 hPa 0,0 mm O-SO 102 16,1 km/h (3 Bft)
16.06.2018 13:35 21,8 C 55 % 1015,0 hPa 0,0 mm O-NO 61 16,1 km/h (3 Bft)
16.06.2018 13:40 21,5 C 57 % 1015,0 hPa 0,0 mm O 84 12,9 km/h (3 Bft)
16.06.2018 13:45 21,6 C 57 % 1015,0 hPa 0,0 mm O 96 16,1 km/h (3 Bft)
16.06.2018 13:50 21,8 C 57 % 1014,8 hPa 0,0 mm O-SO 103 11,3 km/h (2 Bft)
16.06.2018 13:55 22,0 C 54 % 1014,8 hPa 0,0 mm NO 52 11,3 km/h (2 Bft)
16.06.2018 14:00 22,6 C 55 % 1014,8 hPa 0,0 mm O-NO 57 17,7 km/h (3 Bft)
16.06.2018 14:05 22,2 C 57 % 1014,8 hPa 0,0 mm O 90 22,5 km/h (4 Bft)
16.06.2018 14:10 22,4 C 54 % 1014,8 hPa 0,0 mm O 101 20,9 km/h (4 Bft)
16.06.2018 14:15 22,2 C 54 % 1014,7 hPa 0,0 mm O 90 16,1 km/h (3 Bft)
16.06.2018 14:20 22,2 C 57 % 1014,7 hPa 0,0 mm O 82 14,5 km/h (3 Bft)
16.06.2018 14:25 22,3 C 58 % 1014,6 hPa 0,0 mm O-NO 65 12,9 km/h (3 Bft)
16.06.2018 14:30 22,5 C 56 % 1014,6 hPa 0,0 mm SO 126 16,1 km/h (3 Bft)
16.06.2018 14:35 22,4 C 55 % 1014,6 hPa 0,0 mm O 93 19,3 km/h (3 Bft)
16.06.2018 14:40 22,4 C 55 % 1014,7 hPa 0,0 mm O 90 19,3 km/h (3 Bft)
16.06.2018 14:45 22,4 C 55 % 1014,7 hPa 0,0 mm O 80 20,9 km/h (4 Bft)
16.06.2018 14:50 22,5 C 56 % 1014,7 hPa 0,0 mm O 92 20,9 km/h (4 Bft)
16.06.2018 14:55 22,3 C 54 % 1014,7 hPa 0,0 mm O-SO 107 17,7 km/h (3 Bft)
16.06.2018 15:00 22,5 C 56 % 1014,7 hPa 0,0 mm O 90 17,7 km/h (3 Bft)
16.06.2018 15:05 22,3 C 53 % 1014,6 hPa 0,0 mm O-NO 59 16,1 km/h (3 Bft)
16.06.2018 15:10 22,2 C 51 % 1014,6 hPa 0,0 mm O 79 19,3 km/h (3 Bft)
16.06.2018 15:15 22,1 C 55 % 1014,6 hPa 0,0 mm SO 129 20,9 km/h (4 Bft)
16.06.2018 15:20 22,3 C 53 % 1014,5 hPa 0,0 mm O-NO 61 16,1 km/h (3 Bft)
16.06.2018 15:25 22,4 C 53 % 1014,4 hPa 0,0 mm O-SO 111 17,7 km/h (3 Bft)
16.06.2018 15:30 22,2 C 50 % 1014,5 hPa 0,0 mm O 98 17,7 km/h (3 Bft)
16.06.2018 15:35 22,2 C 54 % 1014,3 hPa 0,0 mm O 95 17,7 km/h (3 Bft)
16.06.2018 15:40 22,1 C 48 % 1014,3 hPa 0,0 mm S 171 16,1 km/h (3 Bft)
16.06.2018 15:45 22,3 C 53 % 1014,3 hPa 0,0 mm O-SO 113 17,7 km/h (3 Bft)
16.06.2018 15:50 22,2 C 49 % 1014,3 hPa 0,0 mm SO 127 14,5 km/h (3 Bft)
16.06.2018 15:55 22,3 C 54 % 1014,3 hPa 0,0 mm O 80 14,5 km/h (3 Bft)
16.06.2018 16:00 22,4 C 50 % 1014,2 hPa 0,0 mm O-NO 65 14,5 km/h (3 Bft)
16.06.2018 16:05 22,4 C 48 % 1014,2 hPa 0,0 mm O-NO 59 12,9 km/h (3 Bft)
16.06.2018 16:10 22,4 C 49 % 1014,2 hPa 0,0 mm O 100 14,5 km/h (3 Bft)
16.06.2018 16:15 22,3 C 49 % 1014,1 hPa 0,0 mm O-NO 67 9,7 km/h (2 Bft)
16.06.2018 16:20 22,5 C 47 % 1014,1 hPa 0,0 mm O 95 11,3 km/h (2 Bft)
16.06.2018 16:25 22,4 C 47 % 1014,1 hPa 0,0 mm O-SO 115 11,3 km/h (2 Bft)
16.06.2018 16:30 22,6 C 50 % 1014,0 hPa 0,0 mm O 101 11,3 km/h (2 Bft)
16.06.2018 16:35 22,6 C 45 % 1013,9 hPa 0,0 mm O-NO 57 8,0 km/h (2 Bft)
16.06.2018 16:40 22,6 C 47 % 1014,0 hPa 0,0 mm O-NO 75 11,3 km/h (2 Bft)
16.06.2018 16:45 22,6 C 49 % 1014,0 hPa 0,0 mm O-NO 67 11,3 km/h (2 Bft)
16.06.2018 16:50 22,5 C 50 % 1014,0 hPa 0,0 mm O 100 11,3 km/h (2 Bft)
16.06.2018 16:55 22,4 C 44 % 1013,9 hPa 0,0 mm S 177 8,0 km/h (2 Bft)
16.06.2018 17:00 22,5 C 50 % 1013,9 hPa 0,0 mm O-NO 69 11,3 km/h (2 Bft)
16.06.2018 17:05 22,6 C 50 % 1013,8 hPa 0,0 mm O 90 14,5 km/h (3 Bft)
16.06.2018 17:10 22,5 C 53 % 1013,8 hPa 0,0 mm O 96 14,5 km/h (3 Bft)
16.06.2018 17:15 22,4 C 50 % 1013,7 hPa 0,0 mm O 90 11,3 km/h (2 Bft)
16.06.2018 17:20 22,4 C 46 % 1013,7 hPa 0,0 mm O-SO 116 11,3 km/h (2 Bft)
16.06.2018 17:25 22,3 C 47 % 1013,7 hPa 0,0 mm O 92 9,7 km/h (2 Bft)
16.06.2018 17:30 22,5 C 48 % 1013,7 hPa 0,0 mm O 90 11,3 km/h (2 Bft)
16.06.2018 17:35 22,4 C 48 % 1013,7 hPa 0,0 mm O-SO 103 9,7 km/h (2 Bft)
16.06.2018 17:40 22,4 C 48 % 1013,6 hPa 0,0 mm O-NO 70 11,3 km/h (2 Bft)
16.06.2018 17:45 22,3 C 45 % 1013,5 hPa 0,0 mm O-SO 107 11,3 km/h (2 Bft)
16.06.2018 17:50 22,4 C 48 % 1013,6 hPa 0,0 mm O 90 8,0 km/h (2 Bft)
16.06.2018 17:55 22,3 C 46 % 1013,5 hPa 0,0 mm SO 138 11,3 km/h (2 Bft)
16.06.2018 18:00 22,3 C 46 % 1013,6 hPa 0,0 mm O 96 11,3 km/h (2 Bft)
16.06.2018 18:05 22,2 C 48 % 1013,6 hPa 0,0 mm O 96 12,9 km/h (3 Bft)
16.06.2018 18:10 22,2 C 46 % 1013,5 hPa 0,0 mm O-NO 74 9,7 km/h (2 Bft)
16.06.2018 18:15 22,2 C 49 % 1013,5 hPa 0,0 mm S-SO 148 9,7 km/h (2 Bft)
16.06.2018 18:20 22,2 C 48 % 1013,5 hPa 0,0 mm O-SO 113 14,5 km/h (3 Bft)
16.06.2018 18:25 22,1 C 50 % 1013,5 hPa 0,0 mm O-NO 67 14,5 km/h (3 Bft)
16.06.2018 18:30 22,0 C 49 % 1013,5 hPa 0,0 mm N-NO 30 12,9 km/h (3 Bft)
16.06.2018 18:35 22,1 C 50 % 1013,5 hPa 0,0 mm O-NO 59 9,7 km/h (2 Bft)
16.06.2018 18:40 22,0 C 49 % 1013,5 hPa 0,0 mm N-NO 18 11,3 km/h (2 Bft)
16.06.2018 18:45 21,9 C 51 % 1013,5 hPa 0,0 mm O-NO 66 11,3 km/h (2 Bft)
16.06.2018 18:50 21,7 C 54 % 1013,5 hPa 0,0 mm NO 55 12,9 km/h (3 Bft)
16.06.2018 18:55 21,6 C 50 % 1013,5 hPa 0,0 mm O-NO 74 11,3 km/h (2 Bft)
16.06.2018 19:00 21,6 C 50 % 1013,5 hPa 0,0 mm NO 55 14,5 km/h (3 Bft)
16.06.2018 19:05 21,7 C 52 % 1013,5 hPa 0,0 mm O 80 8,0 km/h (2 Bft)
16.06.2018 19:10 21,6 C 49 % 1013,5 hPa 0,0 mm NO 40 9,7 km/h (2 Bft)
16.06.2018 19:15 21,5 C 53 % 1013,6 hPa 0,0 mm NO 53 11,3 km/h (2 Bft)
16.06.2018 19:20 21,4 C 52 % 1013,6 hPa 0,0 mm NO 40 6,4 km/h (2 Bft)
16.06.2018 19:25 21,2 C 54 % 1013,6 hPa 0,0 mm O-NO 78 9,7 km/h (2 Bft)
16.06.2018 19:30 21,1 C 54 % 1013,6 hPa 0,0 mm NO 48 8,0 km/h (2 Bft)
16.06.2018 19:35 20,9 C 56 % 1013,6 hPa 0,0 mm O-NO 67 6,4 km/h (2 Bft)
16.06.2018 19:40 20,8 C 56 % 1013,6 hPa 0,0 mm N-NO 28 8,0 km/h (2 Bft)
16.06.2018 19:45 20,8 C 56 % 1013,7 hPa 0,0 mm O-NO 76 11,3 km/h (2 Bft)
16.06.2018 19:50 20,8 C 56 % 1013,8 hPa 0,0 mm N-NO 30 8,0 km/h (2 Bft)
16.06.2018 19:55 20,7 C 57 % 1013,9 hPa 0,0 mm O-NO 74 9,7 km/h (2 Bft)
16.06.2018 20:00 20,4 C 58 % 1013,9 hPa 0,0 mm O-NO 74 4,8 km/h (1 Bft)
16.06.2018 20:05 20,2 C 59 % 1013,9 hPa 0,0 mm O-NO 67 6,4 km/h (2 Bft)
16.06.2018 20:10 20,1 C 60 % 1013,9 hPa 0,0 mm O-NO 64 6,4 km/h (2 Bft)
16.06.2018 20:15 20,0 C 60 % 1014,0 hPa 0,0 mm O-NO 70 12,9 km/h (3 Bft)
16.06.2018 20:20 19,7 C 62 % 1014,0 hPa 0,0 mm O-NO 69 4,8 km/h (1 Bft)
16.06.2018 20:25 19,6 C 63 % 1014,0 hPa 0,0 mm NO 40 6,4 km/h (2 Bft)
16.06.2018 20:30 19,3 C 65 % 1014,0 hPa 0,0 mm O-NO 76 8,0 km/h (2 Bft)
16.06.2018 20:35 19,1 C 65 % 1014,0 hPa 0,0 mm NO 54 8,0 km/h (2 Bft)
16.06.2018 20:40 19,3 C 63 % 1014,0 hPa 0,0 mm O-NO 78 11,3 km/h (2 Bft)
16.06.2018 20:45 19,3 C 64 % 1014,0 hPa 0,0 mm NO 55 4,8 km/h (1 Bft)
16.06.2018 20:50 18,8 C 67 % 1014,0 hPa 0,0 mm O-NO 62 4,8 km/h (1 Bft)
16.06.2018 20:55 18,6 C 68 % 1014,1 hPa 0,0 mm O-NO 62 3,2 km/h (1 Bft)
16.06.2018 21:00 18,7 C 67 % 1014,2 hPa 0,0 mm O-NO 62 3,2 km/h (1 Bft)
16.06.2018 21:05 18,2 C 69 % 1014,3 hPa 0,0 mm O-NO 62 1,6 km/h (1 Bft)
16.06.2018 21:10 17,8 C 70 % 1014,3 hPa 0,0 mm O-NO 62 0,0 km/h (0 Bft)
16.06.2018 21:15 17,4 C 73 % 1014,3 hPa 0,0 mm O-NO 62 0,0 km/h (0 Bft)
16.06.2018 21:20 17,1 C 74 % 1014,4 hPa 0,0 mm O-NO 62 0,0 km/h (0 Bft)
16.06.2018 21:25 16,8 C 75 % 1014,4 hPa 0,0 mm O-NO 62 1,6 km/h (1 Bft)
16.06.2018 21:30 16,6 C 75 % 1014,5 hPa 0,0 mm O-NO 62 0,0 km/h (0 Bft)
16.06.2018 21:35 16,3 C 77 % 1014,6 hPa 0,0 mm O-NO 62 0,0 km/h (0 Bft)
16.06.2018 21:40 16,1 C 79 % 1014,6 hPa 0,0 mm O-NO 62 0,0 km/h (0 Bft)
16.06.2018 21:45 15,9 C 79 % 1014,6 hPa 0,0 mm O-NO 62 0,0 km/h (0 Bft)
16.06.2018 21:50 15,8 C 79 % 1014,7 hPa 0,0 mm O-NO 62 0,0 km/h (0 Bft)
16.06.2018 21:55 15,6 C 80 % 1014,7 hPa 0,0 mm O-NO 62 0,0 km/h (0 Bft)
16.06.2018 22:00 15,4 C 81 % 1014,8 hPa 0,0 mm O-NO 62 0,0 km/h (0 Bft)
16.06.2018 22:05 15,3 C 81 % 1014,9 hPa 0,0 mm O-NO 62 1,6 km/h (1 Bft)
16.06.2018 22:10 15,3 C 81 % 1014,9 hPa 0,0 mm O-NO 62 0,0 km/h (0 Bft)
16.06.2018 22:15 15,0 C 82 % 1014,9 hPa 0,0 mm O-NO 62 0,0 km/h (0 Bft)
16.06.2018 22:20 14,8 C 83 % 1014,9 hPa 0,0 mm O-NO 62 0,0 km/h (0 Bft)
16.06.2018 22:25 14,6 C 83 % 1015,0 hPa 0,0 mm O-NO 62 1,6 km/h (1 Bft)
16.06.2018 22:30 14,7 C 83 % 1015,0 hPa 0,0 mm O-NO 62 1,6 km/h (1 Bft)
16.06.2018 22:35 14,3 C 84 % 1015,0 hPa 0,0 mm O-NO 62 0,0 km/h (0 Bft)
16.06.2018 22:40 14,2 C 85 % 1015,0 hPa 0,0 mm O-NO 62 0,0 km/h (0 Bft)
16.06.2018 22:45 14,0 C 85 % 1015,1 hPa 0,0 mm O-NO 62 0,0 km/h (0 Bft)
16.06.2018 22:50 13,9 C 86 % 1015,2 hPa 0,0 mm O-NO 62 0,0 km/h (0 Bft)
16.06.2018 22:55 13,9 C 86 % 1015,1 hPa 0,0 mm O-NO 62 0,0 km/h (0 Bft)
16.06.2018 23:00 13,8 C 86 % 1015,1 hPa 0,0 mm O-NO 62 0,0 km/h (0 Bft)
16.06.2018 23:05 13,7 C 86 % 1015,1 hPa 0,0 mm O-NO 62 0,0 km/h (0 Bft)
16.06.2018 23:10 13,7 C 86 % 1015,1 hPa 0,0 mm O-NO 62 0,0 km/h (0 Bft)
16.06.2018 23:15 13,6 C 87 % 1015,1 hPa 0,0 mm O-NO 62 0,0 km/h (0 Bft)
16.06.2018 23:20 13,4 C 87 % 1015,2 hPa 0,0 mm O-NO 62 0,0 km/h (0 Bft)
16.06.2018 23:25 13,3 C 87 % 1015,2 hPa 0,0 mm O-NO 62 1,6 km/h (1 Bft)
16.06.2018 23:30 13,4 C 87 % 1015,2 hPa 0,0 mm O-NO 61 4,8 km/h (1 Bft)
16.06.2018 23:35 13,3 C 87 % 1015,3 hPa 0,0 mm N-NW 344 3,2 km/h (1 Bft)
16.06.2018 23:40 13,1 C 87 % 1015,3 hPa 0,0 mm N-NW 344 0,0 km/h (0 Bft)
16.06.2018 23:45 12,9 C 88 % 1015,3 hPa 0,0 mm N-NW 344 3,2 km/h (1 Bft)
16.06.2018 23:50 13,1 C 88 % 1015,3 hPa 0,0 mm N-NW 344 3,2 km/h (1 Bft)
16.06.2018 23:55 13,2 C 88 % 1015,3 hPa 0,0 mm NW 325 4,8 km/h (1 Bft)
_ Min-Zeit 05:40 16:55 17:45 - - - 00:00
Minimum _ 10,1 C 44 % 1013,5 hPa - - - 0,0 km/h (0 Bft)
_ Max-Zeit 12:40 05:45 00:40 00:00 - - 14:05
Maximum _ 22,7 C 92 % 1016,8 hPa 0,0 mm - - 22,5 km/h
O (4 Bft)
Durchschnitt _ 17,1 C 71 % 1015,3 hPa #0,0 mm W-NW - 6,8 km/h (2 Bft)